Time;durP1;ratioP1;P1;durP2;ratioP2;P2;SDS_P1;SDS_P2;PMS_P1;PMS_P2;Temp;Humidity;BMP_temperature;BMP_pressure;BME280_temperature;BME280_humidity;BME280_pressure;Samples;Min_cycle;Max_cycle;Signal;HPM_P1;HPM_P2
2023/08/19 00:00:06;;;;;;;14.98;10.25;;;20.30;99.90;;;;;;5046921;28;20481;-81
2023/08/19 00:02:31;;;;;;;11.80;8.77;;;20.40;99.90;;;;;;5031576;28;20032;-81
2023/08/19 00:04:58;;;;;;;9.88;5.93;;;20.40;99.90;;;;;;5046896;28;20037;-80
2023/08/19 00:07:24;;;;;;;8.52;7.35;;;20.40;99.90;;;;;;5031539;28;20022;-81
2023/08/19 00:09:50;;;;;;;7.97;7.22;;;20.40;99.90;;;;;;5046388;28;20039;-82
2023/08/19 00:12:15;;;;;;;9.68;8.02;;;20.40;99.90;;;;;;5030840;28;20036;-79
2023/08/19 00:14:41;;;;;;;9.38;6.90;;;20.40;99.90;;;;;;5031111;28;20033;-80
2023/08/19 00:17:07;;;;;;;7.65;6.80;;;20.40;99.90;;;;;;5046609;28;20044;-81
2023/08/19 00:19:32;;;;;;;9.18;8.10;;;20.40;99.90;;;;;;5046682;28;20446;-81
2023/08/19 00:21:58;;;;;;;15.95;8.20;;;20.40;99.90;;;;;;5046404;28;20040;-81
2023/08/19 00:24:23;;;;;;;9.13;8.25;;;20.40;99.90;;;;;;5031177;28;20506;-81
2023/08/19 00:26:49;;;;;;;9.45;7.07;;;20.40;99.90;;;;;;5046126;28;20033;-81
2023/08/19 00:29:15;;;;;;;13.05;7.72;;;20.40;99.90;;;;;;5031064;28;20104;-82
2023/08/19 00:31:40;;;;;;;8.35;7.50;;;20.30;99.90;;;;;;5046431;28;20420;-81
2023/08/19 00:34:07;;;;;;;10.90;7.30;;;20.30;99.90;;;;;;5030502;28;20470;-81
2023/08/19 00:36:32;;;;;;;11.88;7.75;;;20.30;99.90;;;;;;5031086;28;20100;-81
2023/08/19 00:38:58;;;;;;;10.73;8.50;;;20.30;99.90;;;;;;5031482;28;20108;-81
2023/08/19 00:41:24;;;;;;;10.75;7.28;;;20.30;99.90;;;;;;5045938;28;20025;-81
2023/08/19 00:43:49;;;;;;;8.85;8.00;;;20.30;99.90;;;;;;5046141;28;20092;-82
2023/08/19 00:46:15;;;;;;;7.32;6.57;;;20.20;99.90;;;;;;5029927;28;20065;-81
2023/08/19 00:48:41;;;;;;;14.48;8.02;;;20.30;99.90;;;;;;5030746;28;20059;-81
2023/08/19 00:51:07;;;;;;;8.88;7.30;;;20.20;99.90;;;;;;5046089;28;20455;-80
2023/08/19 00:53:34;;;;;;;11.23;7.88;;;20.20;99.90;;;;;;5045861;28;20124;-82
2023/08/19 00:56:00;;;;;;;11.73;8.23;;;20.20;99.90;;;;;;5031021;28;20049;-81
2023/08/19 00:58:25;;;;;;;12.07;7.93;;;20.20;99.90;;;;;;5030669;28;20114;-82
2023/08/19 01:00:53;;;;;;;10.80;7.43;;;20.20;99.90;;;;;;5045506;28;20087;-80
2023/08/19 01:03:18;;;;;;;10.35;7.55;;;20.20;99.90;;;;;;5045857;28;20046;-80
2023/08/19 01:06:18;;;;;;;13.15;8.55;;;20.20;99.90;;;;;;5045675;28;20052;-80
2023/08/19 01:09:11;;;;;;;7.40;6.70;;;20.20;99.90;;;;;;5030522;28;20037;-81
2023/08/19 01:11:43;;;;;;;13.73;7.10;;;20.10;99.90;;;;;;5030492;28;20437;-82
2023/08/19 01:14:34;;;;;;;8.10;7.30;;;20.10;99.90;;;;;;5030262;28;20056;-82
2023/08/19 01:17:03;;;;;;;10.07;6.82;;;20.00;99.90;;;;;;5030454;28;20029;-81
2023/08/19 01:19:31;;;;;;;7.40;6.70;;;20.00;99.90;;;;;;5045621;28;20532;-82
2023/08/19 01:22:07;;;;;;;8.00;6.72;;;20.00;99.90;;;;;;5045521;28;20033;-83
2023/08/19 01:24:42;;;;;;;15.95;7.35;;;20.00;99.90;;;;;;5030076;28;20037;-81
2023/08/19 01:27:22;;;;;;;11.57;6.18;;;20.00;99.90;;;;;;5030163;28;20030;-82
2023/08/19 01:29:48;;;;;;;11.48;6.82;;;20.00;99.90;;;;;;5030255;28;20413;-82
2023/08/19 01:32:15;;;;;;;9.73;6.25;;;20.00;99.90;;;;;;5030140;28;20025;-82
2023/08/19 01:34:42;;;;;;;6.50;5.88;;;20.00;99.90;;;;;;5030029;28;20067;-83
2023/08/19 01:37:14;;;;;;;10.57;6.80;;;20.00;99.90;;;;;;5030006;28;20021;-82
2023/08/19 01:39:42;;;;;;;12.50;5.75;;;20.00;99.90;;;;;;5045096;28;20053;-82
2023/08/19 01:42:08;;;;;;;12.82;6.80;;;20.00;99.90;;;;;;5045386;28;20056;-83
2023/08/19 01:44:36;;;;;;;12.15;5.85;;;20.00;99.90;;;;;;5045108;28;20048;-82
2023/08/19 01:47:16;;;;;;;8.27;5.60;;;19.90;99.90;;;;;;5045145;28;20060;-82
2023/08/19 01:49:45;;;;;;;10.48;5.65;;;20.00;99.90;;;;;;5029843;28;20140;-83
2023/08/19 01:52:13;;;;;;;10.85;6.35;;;20.00;99.90;;;;;;5029802;28;20033;-81
2023/08/19 01:54:40;;;;;;;7.82;5.85;;;20.00;99.90;;;;;;5029705;28;20079;-82
2023/08/19 01:57:06;;;;;;;11.05;6.15;;;20.00;99.90;;;;;;5029218;28;20048;-82
2023/08/19 01:59:33;;;;;;;9.13;5.55;;;20.00;99.90;;;;;;5044846;28;20104;-82
2023/08/19 02:01:58;;;;;;;10.70;5.90;;;20.00;99.90;;;;;;5045041;28;20091;-82
2023/08/19 02:04:24;;;;;;;7.68;6.05;;;20.10;99.90;;;;;;5029926;28;20479;-83
2023/08/19 02:06:50;;;;;;;9.82;5.95;;;20.10;99.90;;;;;;5029928;28;20038;-82
2023/08/19 02:09:16;;;;;;;10.63;7.95;;;20.10;99.90;;;;;;5045039;28;20402;-82
2023/08/19 02:11:42;;;;;;;15.90;6.80;;;20.10;99.90;;;;;;5029693;28;20022;-81
2023/08/19 02:14:08;;;;;;;8.13;6.82;;;20.10;99.90;;;;;;5029800;28;20100;-81
2023/08/19 02:16:33;;;;;;;12.70;7.30;;;20.20;99.90;;;;;;5045097;28;20026;-80
2023/08/19 02:19:00;;;;;;;14.82;8.02;;;20.20;99.90;;;;;;5029567;28;20029;-81
2023/08/19 02:21:26;;;;;;;9.15;7.65;;;20.20;99.90;;;;;;5029707;28;20544;-81
2023/08/19 02:23:52;;;;;;;9.95;8.15;;;20.20;99.90;;;;;;5029578;28;20041;-82
2023/08/19 02:26:18;;;;;;;14.98;7.32;;;20.20;99.90;;;;;;5029696;28;20021;-83
2023/08/19 02:28:44;;;;;;;8.13;7.03;;;20.30;99.90;;;;;;5044714;28;20029;-82
2023/08/19 02:31:09;;;;;;;10.35;8.00;;;20.30;99.90;;;;;;5029688;28;20034;-82
2023/08/19 02:33:36;;;;;;;9.68;6.78;;;20.30;99.90;;;;;;5044866;28;20026;-82
2023/08/19 02:36:02;;;;;;;8.25;7.43;;;20.30;99.90;;;;;;5029496;28;20018;-81
2023/08/19 02:38:27;;;;;;;10.27;6.75;;;20.30;99.90;;;;;;5044699;28;20075;-82
2023/08/19 02:40:53;;;;;;;9.30;6.75;;;20.30;99.90;;;;;;5044680;28;20057;-82
2023/08/19 02:43:19;;;;;;;9.57;7.38;;;20.30;99.90;;;;;;5029770;28;20083;-82
2023/08/19 02:45:46;;;;;;;12.77;7.45;;;20.30;99.90;;;;;;5029394;28;20032;-82
2023/08/19 02:48:12;;;;;;;8.25;7.35;;;20.30;99.90;;;;;;5029328;28;20702;-81
2023/08/19 02:50:37;;;;;;;12.13;6.65;;;20.30;99.90;;;;;;5029470;28;20030;-82
2023/08/19 02:53:03;;;;;;;11.38;7.70;;;20.30;99.90;;;;;;5044659;28;20029;-81
2023/08/19 02:55:29;;;;;;;7.80;6.93;;;20.40;99.90;;;;;;5029498;28;20033;-82
2023/08/19 02:57:54;;;;;;;8.63;7.70;;;20.40;99.90;;;;;;5029396;28;20084;-82
2023/08/19 03:00:20;;;;;;;8.30;7.55;;;20.40;99.90;;;;;;5044896;28;20061;-81
2023/08/19 03:02:47;;;;;;;17.77;9.15;;;20.40;99.90;;;;;;5044330;28;20353;-82
2023/08/19 03:05:13;;;;;;;11.60;7.65;;;20.30;99.90;;;;;;5029181;28;20034;-82
2023/08/19 03:07:39;;;;;;;12.25;8.88;;;20.30;99.90;;;;;;5029458;28;20030;-81
2023/08/19 03:10:06;;;;;;;14.25;7.82;;;20.30;99.90;;;;;;5031719;28;20036;-82
2023/08/19 03:12:32;;;;;;;17.13;7.80;;;20.20;99.90;;;;;;5032938;28;20085;-80
2023/08/19 03:14:58;;;;;;;8.77;7.88;;;20.20;99.90;;;;;;5032860;28;20021;-82
2023/08/19 03:17:24;;;;;;;11.90;8.63;;;20.20;99.90;;;;;;5032856;28;20474;-82
2023/08/19 03:19:49;;;;;;;11.52;7.68;;;20.20;99.90;;;;;;5032658;28;20546;-82
2023/08/19 03:22:15;;;;;;;11.55;8.32;;;20.10;99.90;;;;;;5047990;28;20030;-82
2023/08/19 03:24:41;;;;;;;10.73;8.70;;;20.10;99.90;;;;;;5032676;28;20037;-83
2023/08/19 03:27:06;;;;;;;11.50;8.57;;;20.10;99.90;;;;;;5048695;28;20127;-82
2023/08/19 03:29:32;;;;;;;15.52;9.27;;;20.10;99.90;;;;;;5048947;28;20056;-82
2023/08/19 03:31:58;;;;;;;13.35;8.57;;;20.00;99.90;;;;;;5032571;28;20079;-82
2023/08/19 03:34:25;;;;;;;9.75;8.75;;;20.00;99.90;;;;;;5032662;28;20520;-82
2023/08/19 03:36:50;;;;;;;10.82;8.20;;;20.10;99.90;;;;;;5032453;28;20065;-81
2023/08/19 03:39:16;;;;;;;13.23;8.85;;;20.00;99.90;;;;;;5047540;28;20059;-82
2023/08/19 03:41:42;;;;;;;8.45;7.55;;;20.00;99.90;;;;;;5032449;28;20516;-82
2023/08/19 03:44:07;;;;;;;11.80;8.32;;;20.00;99.90;;;;;;5047571;28;20033;-83
2023/08/19 03:46:33;;;;;;;10.52;7.90;;;20.00;99.90;;;;;;5047642;28;20024;-82
2023/08/19 03:48:59;;;;;;;9.45;8.43;;;20.00;99.90;;;;;;5032360;28;20047;-81
2023/08/19 03:51:24;;;;;;;9.00;7.50;;;20.00;99.90;;;;;;5032290;28;20351;-83
2023/08/19 03:53:50;;;;;;;12.38;8.60;;;20.00;99.90;;;;;;5031931;28;20034;-82
2023/08/19 03:56:15;;;;;;;12.55;8.10;;;20.00;99.90;;;;;;5032098;28;20659;-82
2023/08/19 03:58:41;;;;;;;13.50;7.70;;;20.00;99.90;;;;;;5031715;28;20444;-81
2023/08/19 04:01:08;;;;;;;8.27;7.40;;;20.10;99.90;;;;;;5031957;28;20024;-81
2023/08/19 04:03:34;;;;;;;9.57;8.35;;;20.10;99.90;;;;;;5046922;28;20052;-81
2023/08/19 04:06:00;;;;;;;14.05;7.85;;;20.10;99.90;;;;;;5031749;28;20036;-82
2023/08/19 04:08:26;;;;;;;10.43;7.32;;;20.10;99.90;;;;;;5046903;28;20026;-81
2023/08/19 04:10:52;;;;;;;11.95;7.90;;;20.10;99.90;;;;;;5031745;28;20029;-82
2023/08/19 04:13:18;;;;;;;13.60;6.82;;;20.20;99.90;;;;;;5031402;28;20430;-82
2023/08/19 04:15:44;;;;;;;9.13;7.57;;;20.20;99.90;;;;;;5031466;28;20022;-81
2023/08/19 04:18:10;;;;;;;9.00;7.95;;;20.20;99.90;;;;;;5031539;28;20036;-81
2023/08/19 04:20:40;;;;;;;11.88;6.57;;;20.20;99.90;;;;;;5045661;28;20026;-82
2023/08/19 04:23:06;;;;;;;9.35;6.47;;;20.30;99.90;;;;;;5029438;28;20090;-82
2023/08/19 04:25:32;;;;;;;7.97;7.18;;;20.40;99.90;;;;;;5031288;28;20030;-82
2023/08/19 04:27:58;;;;;;;8.52;6.85;;;20.40;99.90;;;;;;5031307;28;20033;-82
2023/08/19 04:30:23;;;;;;;14.57;7.78;;;20.50;99.90;;;;;;5031324;28;20046;-82
2023/08/19 04:32:50;;;;;;;7.82;6.45;;;20.60;99.90;;;;;;5031320;28;20544;-81
2023/08/19 04:35:16;;;;;;;14.70;6.40;;;20.70;99.90;;;;;;5030927;28;20116;-80
2023/08/19 04:37:42;;;;;;;11.05;6.07;;;20.70;99.90;;;;;;5030994;28;20096;-80
2023/08/19 04:40:12;;;;;;;9.45;6.18;;;20.80;99.90;;;;;;5031031;28;20539;-81
2023/08/19 04:42:37;;;;;;;13.57;6.18;;;20.90;99.90;;;;;;5046330;28;20029;-82
2023/08/19 04:45:05;;;;;;;10.07;6.32;;;21.00;99.90;;;;;;5030285;28;20053;-79
2023/08/19 04:47:33;;;;;;;7.82;6.20;;;21.10;99.90;;;;;;5046197;28;20029;-81
2023/08/19 04:49:58;;;;;;;7.15;6.38;;;21.20;99.90;;;;;;5046480;28;20037;-82
2023/08/19 04:52:25;;;;;;;13.48;6.60;;;21.20;99.90;;;;;;5030562;28;20719;-81
2023/08/19 04:54:51;;;;;;;8.43;6.00;;;21.40;99.90;;;;;;5030176;28;20501;-80
2023/08/19 04:57:17;;;;;;;7.43;6.38;;;21.50;99.90;;;;;;5045878;28;20021;-81
2023/08/19 04:59:43;;;;;;;10.15;6.20;;;21.60;99.90;;;;;;5046082;28;20043;-80
2023/08/19 05:02:08;;;;;;;12.35;6.40;;;21.80;99.90;;;;;;5045262;28;20047;-81
2023/08/19 05:04:34;;;;;;;9.82;6.75;;;21.90;99.90;;;;;;5038444;28;20509;-80
2023/08/19 05:06:59;;;;;;;7.68;6.15;;;22.10;99.90;;;;;;5030721;28;20048;-82
2023/08/19 05:09:25;;;;;;;21.58;7.78;;;22.20;99.90;;;;;;5030799;28;20052;-81
2023/08/19 05:11:51;;;;;;;10.95;5.80;;;22.30;99.90;;;;;;5029314;28;20116;-81
2023/08/19 05:14:17;;;;;;;6.80;6.10;;;22.40;99.90;;;;;;5028647;28;20057;-81
2023/08/19 05:16:43;;;;;;;10.32;6.18;;;22.50;99.90;;;;;;5028963;28;20108;-81
2023/08/19 05:19:20;;;;;;;11.25;5.75;;;22.70;99.90;;;;;;5030377;28;20101;-82
2023/08/19 05:21:48;;;;;;;7.75;6.28;;;22.90;99.90;;;;;;5030436;28;20104;-82
2023/08/19 05:24:14;;;;;;;9.18;5.82;;;23.10;99.90;;;;;;5029093;28;20409;-82
2023/08/19 05:26:41;;;;;;;10.00;5.88;;;23.40;99.90;;;;;;5030484;28;20097;-81
2023/08/19 05:29:07;;;;;;;8.65;5.93;;;23.80;99.90;;;;;;5029247;28;20542;-80
2023/08/19 05:31:33;;;;;;;8.45;5.03;;;24.10;99.90;;;;;;5034487;28;20021;-81
2023/08/19 05:33:59;;;;;;;8.88;5.18;;;24.30;99.90;;;;;;5041035;28;20085;-81
2023/08/19 05:36:25;;;;;;;7.38;4.57;;;24.40;99.90;;;;;;5049861;28;20025;-81
2023/08/19 05:38:50;;;;;;;8.25;5.13;;;24.60;99.90;;;;;;5040486;28;20033;-80
2023/08/19 05:41:16;;;;;;;9.43;4.22;;;24.80;99.90;;;;;;5037088;28;20477;-80
2023/08/19 05:43:42;;;;;;;7.03;4.25;;;25.00;99.90;;;;;;5038110;28;20391;-80
2023/08/19 05:46:08;;;;;;;5.15;4.00;;;25.20;99.90;;;;;;5038983;28;20371;-80
2023/08/19 05:48:33;;;;;;;7.15;4.57;;;25.60;99.90;;;;;;5036586;28;20028;-81
2023/08/19 05:51:00;;;;;;;5.78;4.40;;;26.10;99.90;;;;;;5039330;28;20029;-81
2023/08/19 05:53:26;;;;;;;10.30;4.70;;;26.60;99.90;;;;;;5036588;28;20039;-81
2023/08/19 05:55:52;;;;;;;6.18;4.07;;;27.00;99.90;;;;;;5037922;28;20025;-81
2023/08/19 05:58:18;;;;;;;10.00;4.38;;;27.20;99.90;;;;;;5039152;28;20029;-82
2023/08/19 06:00:44;;;;;;;4.82;4.22;;;27.50;99.90;;;;;;5036321;28;20020;-82
2023/08/19 06:03:09;;;;;;;10.75;3.50;;;27.90;99.90;;;;;;5030569;28;20029;-82
2023/08/19 06:05:35;;;;;;;8.48;4.07;;;28.30;99.90;;;;;;5028619;28;20207;-82
2023/08/19 06:08:03;;;;;;;7.90;3.95;;;28.50;99.90;;;;;;5029689;28;20029;-82
2023/08/19 06:10:29;;;;;;;5.28;3.42;;;28.60;99.90;;;;;;5037141;28;20081;-82
2023/08/19 06:12:54;;;;;;;7.18;3.15;;;28.70;99.90;;;;;;5037127;28;20413;-82
2023/08/19 06:15:20;;;;;;;7.18;3.35;;;28.90;99.90;;;;;;5034612;28;20053;-80
2023/08/19 06:17:46;;;;;;;7.32;3.75;;;29.20;99.90;;;;;;5036543;28;20021;-80
2023/08/19 06:20:11;;;;;;;5.55;3.70;;;29.40;99.90;;;;;;5036047;28;20045;-81
2023/08/19 06:22:37;;;;;;;7.63;3.85;;;29.40;99.90;;;;;;5042356;28;20021;-82
2023/08/19 06:25:03;;;;;;;9.68;3.78;;;29.40;99.90;;;;;;5036254;28;20040;-82
2023/08/19 06:27:29;;;;;;;6.40;4.80;;;29.70;99.90;;;;;;5038570;28;20036;-81
2023/08/19 06:29:55;;;;;;;7.30;4.80;;;29.90;99.90;;;;;;5037224;28;20033;-81
2023/08/19 06:32:21;;;;;;;10.32;5.20;;;30.10;99.90;;;;;;5037778;28;20049;-81
2023/08/19 06:34:47;;;;;;;10.68;4.88;;;30.50;99.90;;;;;;5035571;28;20103;-81
2023/08/19 06:37:19;;;;;;;8.65;4.47;;;30.70;99.90;;;;;;5037978;28;20044;-81
2023/08/19 06:39:48;;;;;;;7.20;4.20;;;31.30;99.90;;;;;;5037920;28;20014;-81
2023/08/19 06:42:15;;;;;;;8.98;4.25;;;31.90;99.90;;;;;;5038898;28;20029;-81
2023/08/19 06:44:42;;;;;;;7.38;3.75;;;32.40;99.90;;;;;;5041563;28;20032;-81
2023/08/19 06:47:09;;;;;;;13.05;4.35;;;32.70;96.20;;;;;;5041236;28;20029;-81
2023/08/19 06:49:36;;;;;;;10.43;3.42;;;33.00;93.90;;;;;;5043518;28;20110;-81
2023/08/19 06:52:02;;;;;;;13.35;3.50;;;33.30;92.70;;;;;;5041525;28;20029;-80
2023/08/19 06:54:28;;;;;;;7.32;3.80;;;33.10;90.90;;;;;;5040906;28;20501;-81
2023/08/19 06:57:03;;;;;;;11.82;4.35;;;32.50;92.60;;;;;;5041163;28;20056;-79
2023/08/19 06:59:39;;;;;;;7.82;5.28;;;31.80;92.90;;;;;;5044587;28;20025;-80
2023/08/19 07:02:07;;;;;;;8.55;5.65;;;30.70;94.80;;;;;;5039661;28;20457;-80
2023/08/19 07:04:35;;;;;;;11.77;5.40;;;29.80;99.80;;;;;;5032579;28;20168;-81
2023/08/19 07:07:05;;;;;;;11.65;6.10;;;29.10;99.90;;;;;;5032368;28;20017;-79
2023/08/19 07:09:33;;;;;;;7.72;5.47;;;28.70;99.90;;;;;;5032950;28;20041;-80
2023/08/19 07:11:59;;;;;;;7.55;5.07;;;28.30;99.90;;;;;;5031076;28;20025;-80
2023/08/19 07:14:27;;;;;;;9.15;5.97;;;28.20;99.90;;;;;;5032248;28;20053;-80
2023/08/19 07:16:54;;;;;;;10.18;6.45;;;28.00;99.90;;;;;;5032057;28;20435;-79
2023/08/19 07:19:25;;;;;;;15.65;5.95;;;27.60;99.90;;;;;;5031010;28;20025;-80
2023/08/19 07:21:54;;;;;;;8.02;5.70;;;27.30;99.90;;;;;;5031003;28;20515;-79
2023/08/19 07:24:20;;;;;;;15.25;6.43;;;27.00;99.90;;;;;;5031947;28;20124;-79
2023/08/19 07:26:47;;;;;;;10.30;5.88;;;26.70;99.90;;;;;;5032316;28;20029;-79
2023/08/19 07:29:13;;;;;;;10.75;6.60;;;26.30;99.90;;;;;;5030557;28;20071;-79
2023/08/19 07:31:40;;;;;;;10.45;6.05;;;26.10;99.90;;;;;;5030194;28;20032;-79
2023/08/19 07:34:06;;;;;;;6.97;6.22;;;25.80;99.90;;;;;;5030871;28;20029;-79
2023/08/19 07:36:32;;;;;;;8.35;6.70;;;25.50;99.90;;;;;;5030717;28;20026;-79
2023/08/19 07:38:57;;;;;;;8.88;6.97;;;25.20;99.90;;;;;;5031886;28;20087;-79
2023/08/19 07:41:23;;;;;;;6.88;6.03;;;25.00;99.90;;;;;;5030833;28;20025;-80
2023/08/19 07:43:49;;;;;;;8.98;6.25;;;24.80;99.90;;;;;;5031879;28;20107;-79
2023/08/19 07:46:18;;;;;;;10.40;7.05;;;24.60;99.90;;;;;;5031706;28;20533;-79
2023/08/19 07:48:44;;;;;;;7.57;6.30;;;24.50;99.90;;;;;;5030157;28;20087;-79
2023/08/19 07:51:28;;;;;;;9.75;6.63;;;24.40;99.90;;;;;;5030513;28;20394;-79
2023/08/19 07:53:54;;;;;;;15.68;9.27;;;24.20;99.90;;;;;;5030255;28;20029;-81
2023/08/19 07:56:20;;;;;;;32.60;15.30;;;24.20;99.90;;;;;;5031123;28;20021;-81
2023/08/19 07:58:45;;;;;;;19.92;11.27;;;23.60;99.90;;;;;;5031788;28;20032;-80
2023/08/19 08:01:11;;;;;;;16.17;8.38;;;23.00;99.90;;;;;;5031932;28;20030;-81
2023/08/19 08:03:38;;;;;;;18.00;7.32;;;22.50;99.90;;;;;;5030224;28;20029;-80
2023/08/19 08:06:04;;;;;;;11.15;6.28;;;22.00;99.90;;;;;;5040984;28;20088;-81
2023/08/19 08:08:30;;;;;;;17.10;8.30;;;21.50;99.90;;;;;;5049339;28;20519;-82
2023/08/19 08:10:55;;;;;;;13.85;8.38;;;21.10;99.90;;;;;;5051559;28;20029;-81
2023/08/19 08:13:21;;;;;;;19.95;8.35;;;20.80;99.90;;;;;;5051091;28;20052;-81
2023/08/19 08:15:48;;;;;;;14.27;9.27;;;20.70;99.90;;;;;;5051093;28;20057;-81
2023/08/19 08:18:14;;;;;;;17.70;8.15;;;20.60;99.90;;;;;;5041941;28;20091;-82
2023/08/19 08:20:40;;;;;;;13.55;9.68;;;20.60;99.90;;;;;;5031681;28;20036;-81
2023/08/19 08:23:05;;;;;;;12.07;10.10;;;20.50;99.90;;;;;;5030068;28;20029;-83
2023/08/19 08:25:31;;;;;;;14.48;10.43;;;20.50;99.90;;;;;;5031720;28;20049;-81
2023/08/19 08:27:57;;;;;;;16.95;11.30;;;20.60;99.90;;;;;;5037122;28;20068;-82
2023/08/19 08:30:22;;;;;;;20.35;12.90;;;20.60;99.90;;;;;;5043742;28;20064;-83
2023/08/19 08:32:49;;;;;;;15.00;12.07;;;20.70;99.90;;;;;;5047197;28;20083;-82
2023/08/19 08:35:14;;;;;;;15.75;11.73;;;20.80;99.90;;;;;;5036456;28;20556;-82
2023/08/19 08:37:40;;;;;;;11.90;10.27;;;20.80;99.90;;;;;;5051555;28;20113;-82
2023/08/19 08:40:07;;;;;;;14.20;8.55;;;20.80;99.90;;;;;;5049533;28;20383;-81
2023/08/19 08:42:33;;;;;;;14.13;8.23;;;20.80;99.90;;;;;;5051316;28;20374;-81
2023/08/19 08:44:59;;;;;;;10.80;8.90;;;20.70;99.90;;;;;;5050913;28;20029;-81
2023/08/19 08:47:26;;;;;;;14.60;9.88;;;20.60;99.90;;;;;;5050096;28;20029;-83
2023/08/19 08:49:53;;;;;;;12.50;11.18;;;20.60;99.90;;;;;;5050692;28;20036;-83
2023/08/19 08:52:20;;;;;;;14.32;11.50;;;20.60;99.90;;;;;;5050940;28;20029;-83
2023/08/19 08:54:47;;;;;;;11.82;10.50;;;20.70;99.90;;;;;;5049943;28;20405;-83
2023/08/19 08:57:16;;;;;;;15.48;11.02;;;20.80;99.90;;;;;;5051176;28;20028;-83
2023/08/19 08:59:42;;;;;;;13.55;11.95;;;20.80;99.90;;;;;;5049855;28;20021;-82
2023/08/19 09:02:11;;;;;;;11.90;10.52;;;20.90;99.90;;;;;;5049537;28;20028;-83
2023/08/19 09:04:47;;;;;;;9.98;8.95;;;21.00;99.90;;;;;;5050706;28;20072;-80
2023/08/19 09:07:17;;;;;;;;;;;21.00;99.90;;;;;;5050106;28;20025;-81
2023/08/19 09:09:46;;;;;;;11.15;10.05;;;21.10;99.90;;;;;;5048963;28;19909;-82
2023/08/19 09:12:13;;;;;;;10.48;9.30;;;21.10;99.90;;;;;;5050738;28;20013;-82
2023/08/19 09:14:43;;;;;;;11.80;9.25;;;21.20;99.90;;;;;;5050934;28;20417;-81
2023/08/19 09:17:12;;;;;;;10.90;9.35;;;21.20;99.90;;;;;;5049463;28;20040;-83
2023/08/19 09:19:37;;;;;;;13.00;9.27;;;21.30;99.90;;;;;;5050782;28;20039;-83
2023/08/19 09:22:19;;;;;;;11.00;9.70;;;21.30;99.90;;;;;;5049801;28;20029;-83
2023/08/19 09:24:45;;;;;;;9.88;7.72;;;21.30;99.90;;;;;;5049579;28;20040;-82
2023/08/19 09:27:11;;;;;;;8.07;7.22;;;21.40;99.90;;;;;;5050534;28;20060;-82
2023/08/19 09:29:46;;;;;;;10.50;7.50;;;21.40;99.90;;;;;;5050093;28;20067;-81
2023/08/19 09:32:12;;;;;;;11.23;7.95;;;21.40;99.90;;;;;;5045589;28;20025;-83
2023/08/19 09:34:38;;;;;;;11.15;8.35;;;21.40;99.90;;;;;;5050845;28;20032;-83
2023/08/19 09:37:07;;;;;;;7.80;7.05;;;21.50;99.90;;;;;;5048992;28;20497;-83
2023/08/19 09:39:33;;;;;;;12.13;7.50;;;21.50;99.90;;;;;;5049226;28;20389;-83
2023/08/19 09:41:59;;;;;;;7.45;6.68;;;21.50;99.90;;;;;;5048977;28;20025;-83
2023/08/19 09:44:29;;;;;;;7.30;6.60;;;21.50;99.90;;;;;;5049179;28;20036;-83
2023/08/19 09:46:56;;;;;;;9.15;7.40;;;21.60;99.90;;;;;;5050715;28;20063;-82
2023/08/19 09:49:22;;;;;;;6.90;6.22;;;21.60;99.90;;;;;;5038049;28;20482;-84
2023/08/19 09:51:55;;;;;;;6.95;6.18;;;21.60;99.90;;;;;;5030636;28;20035;-84
2023/08/19 09:54:22;;;;;;;15.52;7.15;;;21.60;99.90;;;;;;5029078;28;20498;-83
2023/08/19 09:56:55;;;;;;;7.95;6.90;;;21.70;99.90;;;;;;5029176;28;20064;-83
2023/08/19 09:59:23;;;;;;;7.97;6.63;;;21.70;99.90;;;;;;5030480;28;20029;-82
2023/08/19 10:01:50;;;;;;;7.50;6.80;;;21.80;99.90;;;;;;5030205;28;20026;-81
2023/08/19 10:04:16;;;;;;;8.75;6.65;;;21.90;99.90;;;;;;5028857;28;20460;-83
2023/08/19 10:06:48;;;;;;;7.75;6.95;;;22.10;99.90;;;;;;5029801;28;20478;-83
2023/08/19 10:09:17;;;;;;;13.95;7.90;;;22.20;99.90;;;;;;5029730;28;20576;-83
2023/08/19 10:11:43;;;;;;;10.32;7.85;;;22.20;99.90;;;;;;5029766;28;20025;-83
2023/08/19 10:14:11;;;;;;;8.73;7.55;;;22.30;99.90;;;;;;5027939;28;20537;-81
2023/08/19 10:16:44;;;;;;;8.73;7.93;;;22.30;99.90;;;;;;5029604;28;20029;-81
2023/08/19 10:19:15;;;;;;;9.35;7.65;;;22.40;99.90;;;;;;5032956;28;20021;-83
2023/08/19 10:21:42;;;;;;;9.68;6.78;;;22.40;99.90;;;;;;5033066;28;20029;-81
2023/08/19 10:24:09;;;;;;;8.13;7.10;;;22.40;99.90;;;;;;5035012;28;20045;-82
2023/08/19 10:26:34;;;;;;;14.18;7.38;;;22.30;99.90;;;;;;5032828;28;20048;-82
2023/08/19 10:29:08;;;;;;;14.40;8.73;;;22.40;99.90;;;;;;5051986;28;20413;-82
2023/08/19 10:31:35;;;;;;;8.73;7.47;;;22.50;99.90;;;;;;5054059;28;20512;-82
2023/08/19 10:34:29;;;;;;;10.57;7.47;;;22.40;99.90;;;;;;5054266;28;20029;-82
2023/08/19 10:37:09;;;;;;;9.43;7.03;;;22.60;99.90;;;;;;5053129;28;20122;-81
2023/08/19 10:39:35;;;;;;;11.48;6.85;;;22.80;99.90;;;;;;5052743;28;20378;-82
2023/08/19 10:42:01;;;;;;;6.88;5.55;;;22.90;99.90;;;;;;5052292;28;20558;-82
2023/08/19 10:44:31;;;;;;;6.32;5.10;;;23.00;99.90;;;;;;5053735;28;20068;-81
2023/08/19 10:47:10;;;;;;;9.85;5.28;;;23.20;99.90;;;;;;5053459;28;20036;-82
2023/08/19 10:49:36;;;;;;;10.88;4.90;;;23.30;99.90;;;;;;5052102;28;20028;-81
2023/08/19 10:52:05;;;;;;;5.75;5.25;;;23.40;99.90;;;;;;5053281;28;20029;-81
2023/08/19 10:54:38;;;;;;;6.53;4.47;;;23.50;99.90;;;;;;5051677;28;20135;-82
2023/08/19 10:57:22;;;;;;;6.28;4.68;;;23.60;99.90;;;;;;5051813;28;20025;-81
2023/08/19 10:59:53;;;;;;;5.80;4.25;;;23.70;99.90;;;;;;5052848;28;20053;-81
2023/08/19 11:02:19;;;;;;;9.70;4.10;;;23.80;99.90;;;;;;5053108;28;20025;-81
2023/08/19 11:04:48;;;;;;;5.80;4.13;;;24.00;99.90;;;;;;5051711;28;20040;-80
2023/08/19 11:07:14;;;;;;;8.80;4.13;;;24.30;99.90;;;;;;5051177;28;20083;-81
2023/08/19 11:09:44;;;;;;;4.40;3.88;;;24.40;99.90;;;;;;5052977;28;20464;-81
2023/08/19 11:12:11;;;;;;;4.18;3.78;;;24.60;99.90;;;;;;5051078;28;20398;-80
2023/08/19 11:14:38;;;;;;;8.40;4.05;;;24.70;99.90;;;;;;5050889;28;20049;-81
2023/08/19 11:17:04;;;;;;;6.18;4.13;;;24.90;99.90;;;;;;5051203;28;20557;-79
2023/08/19 11:19:31;;;;;;;5.35;3.65;;;25.10;99.90;;;;;;5051044;28;20163;-80
2023/08/19 11:21:57;;;;;;;6.05;3.67;;;25.30;99.90;;;;;;5051084;28;20036;-81
2023/08/19 11:24:33;;;;;;;4.63;3.42;;;25.50;99.90;;;;;;5052314;28;20146;-79
2023/08/19 11:26:59;;;;;;;6.28;3.72;;;25.80;99.90;;;;;;5052360;28;20060;-80
2023/08/19 11:29:26;;;;;;;7.85;3.97;;;26.10;99.90;;;;;;5050401;28;20528;-81
2023/08/19 11:31:51;;;;;;;4.93;3.90;;;26.30;99.90;;;;;;5052283;28;20036;-80
2023/08/19 11:34:17;;;;;;;8.45;3.50;;;26.50;99.90;;;;;;5050554;28;20032;-81
2023/08/19 11:36:45;;;;;;;5.97;4.00;;;26.70;99.90;;;;;;5050690;28;20078;-81
2023/08/19 11:39:11;;;;;;;6.15;3.38;;;27.00;99.90;;;;;;5050822;28;20025;-80
2023/08/19 11:41:37;;;;;;;5.97;3.30;;;27.30;99.90;;;;;;5052048;28;20037;-81
2023/08/19 11:44:05;;;;;;;7.70;3.17;;;27.40;99.90;;;;;;5050715;28;20082;-81
2023/08/19 11:46:31;;;;;;;5.28;3.35;;;27.50;99.90;;;;;;5050203;28;20029;-81
2023/08/19 11:48:59;;;;;;;5.75;3.25;;;27.60;99.90;;;;;;5050559;28;20021;-81
2023/08/19 11:51:27;;;;;;;4.28;3.22;;;27.70;99.90;;;;;;5051888;28;20032;-81
2023/08/19 11:53:59;;;;;;;8.90;3.60;;;27.90;99.90;;;;;;5051514;28;20033;-82
2023/08/19 11:56:25;;;;;;;4.55;3.00;;;28.00;99.90;;;;;;5051816;28;20111;-81
2023/08/19 11:58:52;;;;;;;5.97;2.78;;;28.20;99.90;;;;;;5051804;28;20096;-80
2023/08/19 12:01:19;;;;;;;6.72;3.53;;;28.30;99.90;;;;;;5052041;28;20493;-80
2023/08/19 12:03:49;;;;;;;4.70;3.20;;;28.40;99.90;;;;;;5051535;28;20056;-81
2023/08/19 12:06:16;;;;;;;5.28;3.20;;;28.60;99.90;;;;;;5050489;28;20032;-79
2023/08/19 12:08:43;;;;;;;6.88;3.95;;;28.70;99.90;;;;;;5050118;28;20025;-81
2023/08/19 12:11:10;;;;;;;6.22;3.53;;;28.90;99.90;;;;;;5054021;28;20013;-82
2023/08/19 12:13:36;;;;;;;6.00;3.10;;;29.00;99.90;;;;;;5049949;28;20044;-81
2023/08/19 12:16:03;;;;;;;4.50;2.80;;;29.10;99.90;;;;;;5051651;28;20033;-79
2023/08/19 12:18:33;;;;;;;6.53;3.30;;;29.20;99.90;;;;;;5051154;28;20036;-81
2023/08/19 12:21:00;;;;;;;4.50;3.38;;;29.30;99.90;;;;;;5051300;28;20104;-81
2023/08/19 12:23:27;;;;;;;6.28;2.88;;;29.30;99.90;;;;;;5047942;28;20029;-81
2023/08/19 12:25:55;;;;;;;7.85;2.88;;;29.40;99.10;;;;;;5042032;28;20106;-82
2023/08/19 12:28:23;;;;;;;4.32;2.25;;;29.50;91.60;;;;;;5049397;28;20032;-81
2023/08/19 12:30:49;;;;;;;2.78;2.10;;;29.50;85.00;;;;;;5051428;28;20107;-80
2023/08/19 12:33:15;;;;;;;7.22;2.58;;;29.60;88.70;;;;;;5051012;28;20028;-81
2023/08/19 12:35:44;;;;;;;5.43;2.55;;;29.60;77.50;;;;;;5051014;28;20043;-81
2023/08/19 12:38:11;;;;;;;2.95;2.25;;;29.70;76.50;;;;;;5050902;28;20027;-81
2023/08/19 12:40:37;;;;;;;6.97;2.55;;;29.60;74.40;;;;;;5050938;28;20021;-80
2023/08/19 12:43:03;;;;;;;4.78;2.30;;;29.70;74.40;;;;;;5049701;28;20021;-81